createdAt,value
2018-11-22T12:30:50.963Z,94894.41
2018-11-22T12:45:51.384Z,94893.59
2018-11-22T13:15:51.440Z,94906.06
2018-11-22T13:30:52.609Z,94918.28
2018-11-22T13:45:50.576Z,94920.04
2018-11-22T14:00:50.280Z,94928.64
2018-11-22T14:15:51.333Z,94932.55
2018-11-22T14:30:50.816Z,94939.16
2018-11-22T14:45:50.778Z,94943.34
2018-11-22T15:00:50.206Z,94954.22
2018-11-22T15:15:50.638Z,94970.37
2018-11-22T15:30:51.095Z,94979.41
2018-11-22T15:45:50.977Z,94988.64
2018-11-22T16:00:51.927Z,95008.61
2018-11-22T16:15:52.756Z,95010.86
2018-11-22T16:30:52.804Z,95024.03
2018-11-22T16:45:52.309Z,95044.29
2018-11-22T17:00:52.107Z,95065.27
2018-11-22T17:15:52.576Z,95055.71
2018-11-22T17:30:53.724Z,95070.41
2018-11-22T17:45:52.797Z,95080.55
2018-11-22T18:00:57.441Z,95083.83
2018-11-22T18:15:58.921Z,95092.37
2018-11-22T18:30:53.726Z,95089.23
2018-11-22T18:45:54.835Z,95098.90
2018-11-22T19:00:51.444Z,95102.33
2018-11-22T19:15:53.600Z,95115.36
2018-11-22T19:30:50.837Z,95120.52
2018-11-22T19:45:53.636Z,95124.50
2018-11-22T20:00:51.322Z,95129.06
2018-11-22T20:15:51.155Z,95125.42
2018-11-22T20:30:54.330Z,95139.05
2018-11-22T20:45:53.755Z,95151.73
2018-11-22T21:00:51.506Z,95154.78
2018-11-22T21:30:54.119Z,95150.16
2018-11-22T21:45:54.797Z,95143.83
2018-11-22T22:00:57.673Z,95140.91
2018-11-22T22:15:52.016Z,95144.56
2018-11-22T22:30:51.476Z,95144.78
2018-11-22T22:45:51.663Z,95137.74
2018-11-22T23:00:51.981Z,95139.05
2018-11-22T23:15:52.839Z,95146.36
2018-11-22T23:30:50.542Z,95148.71
2018-11-22T23:45:52.538Z,95154.44
